Sirius — V7KI6 — position and weather

sailwx.info

Track history (hours):
 
Tides and Currents Weather Stations Pressure Air Temp Water Temp Dewpoint Dewpoint Depression Visibility Wind Speed Wind Dir Waves Ship Positions

Sirius

Last reported at 2014-Sep-17 03:21 UTC. Time now 2014-Sep-17 15:42 UTC.
Position N 31°23' E 032°17'.

Length 178.1 m; beam 28.2 m; draft 11.5 m.

Type: Cargo ship. MMSI: 538090245.

Date/timePositionNaut miles runAvg speedWind from/ knotsBaromVisibWave heightAir tempDewpointWater temp
2014-Sep-17 03:21N 31°23' E 032°17'0 0.0
2014-Sep-17 02:33N 31°23' E 032°17'0 0.0
2014-Sep-17 01:09N 31°23' E 032°17'  
2014-Sep-13 17:14N 33°24' E 032°55'5016.0
2014-Sep-13 14:06N 34°13' E 033°04'815.8
2014-Sep-13 13:34N 34°22' E 033°05'1515.4
2014-Sep-13 12:34N 34°37' E 033°05'4 3.5
2014-Sep-13 11:31N 34°39' E 033°01'0 0.0
2014-Sep-13 10:31N 34°39' E 033°01'0 0.0
2014-Sep-13 09:31N 34°39' E 033°01'0 0.0
2014-Sep-13 08:31N 34°39' E 033°01'0 0.0
2014-Sep-13 07:31N 34°39' E 033°01'0 0.0
2014-Sep-13 06:31N 34°39' E 033°01'0 0.0
2014-Sep-13 05:31N 34°39' E 033°01'0 0.0
2014-Sep-13 04:31N 34°39' E 033°01'1 1.4
2014-Sep-13 03:34N 34°39' E 033°02'2 1.6
2014-Sep-13 02:33N 34°40' E 033°04'0 0.0
2014-Sep-13 01:33N 34°40' E 033°04'0 0.0
2014-Sep-13 00:33N 34°40' E 033°04'0 0.0
2014-Sep-12 23:33N 34°40' E 033°04'0 0.0
2014-Sep-12 22:33N 34°40' E 033°04'0 0.1
2014-Sep-12 21:33N 34°40' E 033°04'4 3.7
2014-Sep-12 20:33N 34°39' E 033°08'1515.0
2014-Sep-12 19:33N 34°32' E 033°24'1514.5
2014-Sep-12 18:32N 34°27' E 033°41'1714.6
2014-Sep-12 17:23N 34°20' E 033°60'1214.8
2014-Sep-12 16:32N 34°15' E 034°14'3715.2
2014-Sep-12 14:06N 34°02' E 034°55'  
2014-Sep-08 17:33N 34°42' E 025°57'3718.5
2014-Sep-08 15:33N 34°38' E 025°13'48218.5
2014-Sep-07 13:33N 35°41' E 015°29'1918.8
2014-Sep-07 12:33N 35°44' E 015°06'1818.4
2014-Sep-07 11:33N 35°47' E 014°43'  
Track history (hours):
 
Tides and Currents Weather Stations Pressure Air Temp Water Temp Dewpoint Dewpoint Depression Visibility Wind Speed Wind Dir Waves Ship Positions

Sirius

Last reported at 2014-Sep-17 03:21 UTC. Time now 2014-Sep-17 15:42 UTC.
Position N 31°23' E 032°17'.

Length 178.1 m; beam 28.2 m; draft 11.5 m.

Type: Cargo ship. MMSI: 538090245.

Date/timePositionNaut miles runAvg speedWind from/ knotsBaromVisibWave heightAir tempDewpointWater temp
2014-Sep-17 03:21N 31°23' E 032°17'0 0.0
2014-Sep-17 02:33N 31°23' E 032°17'0 0.0
2014-Sep-17 01:09N 31°23' E 032°17'  
2014-Sep-13 17:14N 33°24' E 032°55'5016.0
2014-Sep-13 14:06N 34°13' E 033°04'815.8
2014-Sep-13 13:34N 34°22' E 033°05'1515.4
2014-Sep-13 12:34N 34°37' E 033°05'4 3.5
2014-Sep-13 11:31N 34°39' E 033°01'0 0.0
2014-Sep-13 10:31N 34°39' E 033°01'0 0.0
2014-Sep-13 09:31N 34°39' E 033°01'0 0.0
2014-Sep-13 08:31N 34°39' E 033°01'0 0.0
2014-Sep-13 07:31N 34°39' E 033°01'0 0.0
2014-Sep-13 06:31N 34°39' E 033°01'0 0.0
2014-Sep-13 05:31N 34°39' E 033°01'0 0.0
2014-Sep-13 04:31N 34°39' E 033°01'1 1.4
2014-Sep-13 03:34N 34°39' E 033°02'2 1.6
2014-Sep-13 02:33N 34°40' E 033°04'0 0.0
2014-Sep-13 01:33N 34°40' E 033°04'0 0.0
2014-Sep-13 00:33N 34°40' E 033°04'0 0.0
2014-Sep-12 23:33N 34°40' E 033°04'0 0.0
2014-Sep-12 22:33N 34°40' E 033°04'0 0.1
2014-Sep-12 21:33N 34°40' E 033°04'4 3.7
2014-Sep-12 20:33N 34°39' E 033°08'1515.0
2014-Sep-12 19:33N 34°32' E 033°24'1514.5
2014-Sep-12 18:32N 34°27' E 033°41'1714.6
2014-Sep-12 17:23N 34°20' E 033°60'1214.8
2014-Sep-12 16:32N 34°15' E 034°14'3715.2
2014-Sep-12 14:06N 34°02' E 034°55'  
2014-Sep-08 17:33N 34°42' E 025°57'3718.5
2014-Sep-08 15:33N 34°38' E 025°13'48218.5
2014-Sep-07 13:33N 35°41' E 015°29'1918.8
2014-Sep-07 12:33N 35°44' E 015°06'1818.4
2014-Sep-07 11:33N 35°47' E 014°43'  

Dump ship's entire track history